Time;durP1;ratioP1;P1;durP2;ratioP2;P2;SDS_P1;SDS_P2;PMS_P1;PMS_P2;Temp;Humidity;BMP_temperature;BMP_pressure;BME280_temperature;BME280_humidity;BME280_pressure;Samples;Min_cycle;Max_cycle;Signal;HPM_P1;HPM_P2
2023/10/28 00:02:24;;;;;;;1.80;1.05;;;;;;;;;;5040974;28;20041;-71
2023/10/28 00:04:51;;;;;;;2.10;1.10;;;;;;;;;;5040454;28;20052;-71
2023/10/28 00:07:20;;;;;;;3.60;1.25;;;;;;;;;;5040808;28;20052;-71
2023/10/28 00:09:47;;;;;;;3.58;1.08;;;;;;;;;;5040387;28;20058;-71
2023/10/28 00:12:14;;;;;;;3.80;1.15;;;;;;;;;;5040497;28;20107;-71
2023/10/28 00:14:41;;;;;;;2.42;1.13;;;;;;;;;;5040798;28;20049;-71
2023/10/28 00:17:07;;;;;;;2.22;1.17;;;;;;;;;;5040579;28;20052;-70
2023/10/28 00:19:34;;;;;;;2.40;1.10;;;;;;;;;;5040580;28;20333;-70
2023/10/28 00:22:01;;;;;;;3.00;1.17;;;;;;;;;;5040659;28;20091;-69
2023/10/28 00:24:27;;;;;;;2.05;1.10;;;;;;;;;;5039898;28;20045;-72
2023/10/28 00:26:55;;;;;;;2.38;1.10;;;;;;;;;;5040854;28;20045;-71
2023/10/28 00:29:22;;;;;;;4.55;1.23;;;;;;;;;;5040310;28;20053;-70
2023/10/28 00:31:51;;;;;;;3.17;1.00;;;;;;;;;;5040384;28;20060;-70
2023/10/28 00:34:17;;;;;;;2.50;1.20;;;;;;;;;;5040134;28;20059;-71
2023/10/28 00:36:44;;;;;;;2.50;1.30;;;;;;;;;;5040760;28;20228;-70
2023/10/28 00:39:11;;;;;;;2.20;1.00;;;;;;;;;;5040043;28;20056;-70
2023/10/28 00:41:38;;;;;;;4.28;1.30;;;;;;;;;;5040244;28;20494;-70
2023/10/28 00:44:04;;;;;;;1.95;1.00;;;;;;;;;;5039938;28;20050;-70
2023/10/28 00:46:31;;;;;;;2.33;1.20;;;;;;;;;;5040466;28;20076;-70
2023/10/28 00:48:59;;;;;;;2.65;1.27;;;;;;;;;;5040164;28;20351;-70
2023/10/28 00:51:26;;;;;;;1.88;1.02;;;;;;;;;;5040433;28;20156;-70
2023/10/28 00:53:53;;;;;;;2.13;1.10;;;;;;;;;;5039571;28;20056;-69
2023/10/28 00:56:19;;;;;;;2.58;1.20;;;;;;;;;;5040061;28;20364;-70
2023/10/28 00:58:47;;;;;;;3.53;1.23;;;;;;;;;;5040039;28;20241;-71
2023/10/28 01:01:14;;;;;;;4.05;1.20;;;;;;;;;;5036558;28;20050;-70
2023/10/28 01:03:41;;;;;;;3.30;1.02;;;;;;;;;;5028404;28;20073;-72
2023/10/28 01:06:12;;;;;;;2.42;1.10;;;;;;;;;;5028070;28;20513;-70
2023/10/28 01:08:39;;;;;;;2.35;1.13;;;;;;;;;;5028411;28;20061;-70
2023/10/28 01:11:06;;;;;;;1.50;0.88;;;;;;;;;;5027915;28;20060;-71
2023/10/28 01:13:33;;;;;;;3.83;1.13;;;;;;;;;;5028663;28;20053;-70
2023/10/28 01:16:00;;;;;;;2.42;1.20;;;;;;;;;;5028228;28;20061;-71
2023/10/28 01:18:29;;;;;;;3.05;1.00;;;;;;;;;;5028595;28;20042;-72
2023/10/28 01:21:09;;;;;;;2.35;1.15;;;;;;;;;;5028032;28;20045;-70
2023/10/28 01:23:36;;;;;;;1.83;0.80;;;;;;;;;;5027818;28;20092;-70
2023/10/28 01:26:03;;;;;;;3.17;1.00;;;;;;;;;;5027834;28;20056;-71
2023/10/28 01:28:30;;;;;;;1.77;0.90;;;;;;;;;;5028644;28;20072;-71
2023/10/28 01:31:00;;;;;;;3.33;1.13;;;;;;;;;;5028382;28;20060;-71
2023/10/28 01:33:27;;;;;;;1.52;0.85;;;;;;;;;;5028452;28;20061;-71
2023/10/28 01:35:54;;;;;;;2.05;0.90;;;;;;;;;;5028072;28;20060;-71
2023/10/28 01:38:23;;;;;;;3.15;1.17;;;;;;;;;;5010035;28;20057;-70
2023/10/28 01:40:51;;;;;;;2.22;0.82;;;;;;;;;;5027751;28;20620;-72
2023/10/28 01:43:19;;;;;;;2.38;1.00;;;;;;;;;;5028255;28;20054;-71
2023/10/28 01:45:46;;;;;;;3.65;0.98;;;;;;;;;;5028111;28;20045;-71
2023/10/28 01:48:13;;;;;;;1.25;0.70;;;;;;;;;;5028377;28;20045;-69
2023/10/28 01:50:41;;;;;;;1.75;0.80;;;;;;;;;;5028083;28;20053;-71
2023/10/28 01:53:07;;;;;;;1.05;0.80;;;;;;;;;;5027516;28;20563;-72
2023/10/28 01:55:34;;;;;;;2.67;1.10;;;;;;;;;;5027685;28;20046;-71
2023/10/28 01:58:01;;;;;;;1.65;1.00;;;;;;;;;;5028034;28;20046;-70
2023/10/28 02:00:30;;;;;;;4.55;1.20;;;;;;;;;;5027646;28;20058;-70
2023/10/28 02:02:57;;;;;;;4.57;1.10;;;;;;;;;;5028043;28;20461;-70
2023/10/28 02:05:26;;;;;;;1.27;0.88;;;;;;;;;;5027806;28;20136;-72
2023/10/28 02:07:53;;;;;;;1.58;0.93;;;;;;;;;;5028616;28;20052;-70
2023/10/28 02:10:20;;;;;;;1.15;0.77;;;;;;;;;;5031105;28;20049;-70
2023/10/28 02:12:48;;;;;;;1.15;0.70;;;;;;;;;;5031361;28;20049;-70
2023/10/28 02:15:16;;;;;;;1.90;0.80;;;;;;;;;;5031088;28;20401;-72
2023/10/28 02:17:46;;;;;;;1.80;0.80;;;;;;;;;;5031321;28;20294;-70
2023/10/28 02:20:13;;;;;;;2.17;0.95;;;;;;;;;;5031594;28;20096;-70
2023/10/28 02:22:41;;;;;;;2.17;0.90;;;;;;;;;;5031460;28;20052;-70
2023/10/28 02:25:09;;;;;;;1.40;0.90;;;;;;;;;;5030822;28;20060;-71
2023/10/28 02:27:39;;;;;;;3.05;1.10;;;;;;;;;;5031205;28;20060;-71
2023/10/28 02:30:09;;;;;;;2.50;1.10;;;;;;;;;;5031050;28;20045;-71
2023/10/28 02:32:36;;;;;;;1.80;0.70;;;;;;;;;;5030884;28;20417;-70
2023/10/28 02:35:03;;;;;;;2.20;0.90;;;;;;;;;;5030534;28;20084;-70
2023/10/28 02:37:30;;;;;;;1.77;0.88;;;;;;;;;;5031099;28;20088;-71
2023/10/28 02:40:00;;;;;;;3.80;0.90;;;;;;;;;;5030813;28;20045;-72
2023/10/28 02:42:29;;;;;;;1.50;0.80;;;;;;;;;;5030742;28;20049;-71
2023/10/28 02:44:56;;;;;;;2.22;0.88;;;;;;;;;;5031103;28;20056;-70
2023/10/28 02:47:23;;;;;;;2.15;0.80;;;;;;;;;;5030736;28;20130;-72
2023/10/28 02:49:50;;;;;;;1.17;0.70;;;;;;;;;;5030991;28;20053;-71
2023/10/28 02:52:16;;;;;;;4.32;1.02;;;;;;;;;;5030656;28;20076;-71
2023/10/28 02:54:43;;;;;;;2.53;0.90;;;;;;;;;;5030142;28;20049;-71
2023/10/28 02:57:10;;;;;;;2.53;0.98;;;;;;;;;;5030505;28;20049;-70
2023/10/28 02:59:36;;;;;;;1.77;0.90;;;;;;;;;;5030965;28;20041;-71
2023/10/28 03:02:03;;;;;;;3.17;1.02;;;;;;;;;;5030700;28;20041;-72
2023/10/28 03:04:30;;;;;;;1.77;1.17;;;;;;;;;;5030826;28;20061;-70
2023/10/28 03:06:57;;;;;;;2.08;1.05;;;;;;;;;;5030287;28;20056;-69
2023/10/28 03:09:24;;;;;;;1.40;0.90;;;;;;;;;;5029968;28;20049;-72
2023/10/28 03:11:50;;;;;;;2.60;0.82;;;;;;;;;;5030151;28;20081;-69
2023/10/28 03:14:17;;;;;;;1.33;0.73;;;;;;;;;;5030457;28;20080;-71
2023/10/28 03:16:45;;;;;;;1.48;0.90;;;;;;;;;;5030137;28;20072;-72
2023/10/28 03:19:12;;;;;;;1.70;0.90;;;;;;;;;;5029549;28;20473;-71
2023/10/28 03:21:40;;;;;;;2.42;0.90;;;;;;;;;;5029636;28;20052;-70
2023/10/28 03:24:07;;;;;;;1.60;0.90;;;;;;;;;;5029798;28;20120;-70
2023/10/28 03:26:36;;;;;;;4.68;1.23;;;;;;;;;;5030486;28;20051;-72
2023/10/28 03:29:06;;;;;;;3.55;1.20;;;;;;;;;;5031020;28;20045;-70
2023/10/28 03:31:33;;;;;;;1.77;0.88;;;;;;;;;;5031646;28;20107;-70
2023/10/28 03:34:00;;;;;;;1.88;0.90;;;;;;;;;;5030055;28;20053;-70
2023/10/28 03:36:27;;;;;;;1.92;1.00;;;;;;;;;;5029591;28;20053;-69
2023/10/28 03:38:55;;;;;;;1.50;0.90;;;;;;;;;;5033514;28;20049;-70
2023/10/28 03:41:22;;;;;;;2.55;0.93;;;;;;;;;;5041365;28;20052;-71
2023/10/28 03:43:49;;;;;;;1.60;0.98;;;;;;;;;;5041367;28;20049;-71
2023/10/28 03:46:20;;;;;;;2.45;1.00;;;;;;;;;;5041332;28;20076;-72
2023/10/28 03:48:47;;;;;;;1.40;0.90;;;;;;;;;;5041615;28;20144;-72
2023/10/28 03:51:16;;;;;;;1.30;0.90;;;;;;;;;;5041402;28;20045;-71
2023/10/28 03:53:43;;;;;;;3.63;1.02;;;;;;;;;;5041073;28;20061;-71
2023/10/28 03:56:10;;;;;;;2.20;1.10;;;;;;;;;;5041164;28;20045;-71
2023/10/28 03:58:37;;;;;;;1.92;0.80;;;;;;;;;;5041170;28;20292;-70
2023/10/28 04:01:03;;;;;;;5.10;1.10;;;;;;;;;;5040934;28;20335;-72
2023/10/28 04:03:30;;;;;;;1.95;1.10;;;;;;;;;;5041134;28;20045;-69
2023/10/28 04:05:57;;;;;;;1.60;1.00;;;;;;;;;;5039650;28;20371;-71
2023/10/28 04:08:23;;;;;;;1.70;0.98;;;;;;;;;;5040721;28;20050;-69
2023/10/28 04:10:50;;;;;;;2.38;0.80;;;;;;;;;;5040889;28;20051;-71
2023/10/28 04:13:18;;;;;;;1.90;1.00;;;;;;;;;;5040625;28;20458;-71
2023/10/28 04:15:46;;;;;;;2.00;1.13;;;;;;;;;;5040941;28;20049;-70
2023/10/28 04:18:13;;;;;;;2.35;1.08;;;;;;;;;;5040615;28;20335;-71
2023/10/28 04:20:39;;;;;;;1.90;1.00;;;;;;;;;;5040730;28;20053;-69
2023/10/28 04:23:09;;;;;;;4.18;1.00;;;;;;;;;;5040094;28;20388;-71
2023/10/28 04:25:38;;;;;;;2.50;0.95;;;;;;;;;;5040616;28;20049;-70
2023/10/28 04:28:05;;;;;;;2.85;0.93;;;;;;;;;;5040483;28;20056;-70
2023/10/28 04:30:34;;;;;;;3.08;1.30;;;;;;;;;;5040315;28;20467;-71
2023/10/28 04:33:00;;;;;;;2.15;0.80;;;;;;;;;;5040230;28;20046;-71
2023/10/28 04:35:27;;;;;;;1.98;0.85;;;;;;;;;;5040255;28;20290;-71
2023/10/28 04:37:55;;;;;;;1.77;0.70;;;;;;;;;;5040322;28;20045;-71
2023/10/28 04:40:24;;;;;;;3.42;0.90;;;;;;;;;;5040044;28;20084;-70
2023/10/28 04:42:52;;;;;;;1.65;0.80;;;;;;;;;;5040334;28;20051;-71
2023/10/28 04:45:21;;;;;;;1.48;0.68;;;;;;;;;;5040171;28;20045;-71
2023/10/28 04:47:49;;;;;;;1.30;0.85;;;;;;;;;;5037298;28;20049;-70
2023/10/28 04:50:17;;;;;;;1.40;0.90;;;;;;;;;;5040186;28;20041;-72
2023/10/28 04:52:43;;;;;;;1.40;0.80;;;;;;;;;;5039865;28;20041;-69
2023/10/28 04:55:12;;;;;;;3.33;0.93;;;;;;;;;;5039357;28;20048;-71
2023/10/28 04:57:40;;;;;;;1.65;0.65;;;;;;;;;;5039527;28;20325;-70
2023/10/28 05:00:13;;;;;;;4.10;0.88;;;;;;;;;;5039759;28;20072;-69
2023/10/28 05:02:40;;;;;;;1.13;0.60;;;;;;;;;;5039653;28;20045;-69
2023/10/28 05:05:07;;;;;;;2.53;0.85;;;;;;;;;;5039980;28;20076;-71
2023/10/28 05:07:34;;;;;;;4.22;0.93;;;;;;;;;;5039388;28;20042;-70
2023/10/28 05:10:01;;;;;;;2.30;1.00;;;;;;;;;;5039442;28;20072;-70
2023/10/28 05:12:28;;;;;;;2.70;0.70;;;;;;;;;;5036631;28;20083;-69
2023/10/28 05:14:54;;;;;;;1.50;0.90;;;;;;;;;;5039542;28;20088;-71
2023/10/28 05:17:21;;;;;;;1.20;0.70;;;;;;;;;;5039685;28;20067;-70
2023/10/28 05:19:48;;;;;;;2.63;0.80;;;;;;;;;;5037057;28;20338;-71
2023/10/28 05:22:17;;;;;;;3.13;0.85;;;;;;;;;;5039790;28;20042;-71
2023/10/28 05:24:44;;;;;;;0.75;0.60;;;;;;;;;;5039306;28;20041;-70
2023/10/28 05:27:11;;;;;;;2.58;0.95;;;;;;;;;;5039426;28;20310;-70
2023/10/28 05:29:38;;;;;;;0.98;0.57;;;;;;;;;;5039237;28;20109;-70
2023/10/28 05:32:04;;;;;;;0.80;0.50;;;;;;;;;;5039689;28;20088;-70
2023/10/28 05:34:31;;;;;;;1.55;0.68;;;;;;;;;;5039251;28;20117;-71
2023/10/28 05:36:58;;;;;;;2.92;0.70;;;;;;;;;;5037720;28;20045;-71
2023/10/28 05:39:25;;;;;;;2.90;0.73;;;;;;;;;;5027417;28;20053;-70
2023/10/28 05:41:52;;;;;;;1.80;0.63;;;;;;;;;;5027699;28;20045;-69
2023/10/28 05:44:18;;;;;;;4.45;0.88;;;;;;;;;;5030220;28;20128;-70
2023/10/28 05:46:45;;;;;;;2.55;0.50;;;;;;;;;;5032164;28;20045;-70
2023/10/28 05:49:14;;;;;;;1.45;0.50;;;;;;;;;;5031569;28;20045;-72
2023/10/28 05:51:42;;;;;;;1.80;0.57;;;;;;;;;;5032114;28;20065;-70
2023/10/28 05:54:11;;;;;;;1.42;0.63;;;;;;;;;;5031217;28;20089;-70
2023/10/28 05:56:38;;;;;;;1.95;0.60;;;;;;;;;;5031885;28;20068;-70
2023/10/28 05:59:05;;;;;;;0.98;0.50;;;;;;;;;;5031845;28;20049;-70
2023/10/28 06:01:31;;;;;;;1.90;0.85;;;;;;;;;;5031792;28;20233;-70
2023/10/28 06:03:59;;;;;;;0.52;0.40;;;;;;;;;;5031604;28;20053;-72
2023/10/28 06:06:26;;;;;;;1.02;0.50;;;;;;;;;;5031335;28;20461;-70
2023/10/28 06:08:53;;;;;;;1.27;0.52;;;;;;;;;;5031212;28;20055;-71
2023/10/28 06:11:19;;;;;;;1.90;0.70;;;;;;;;;;5031214;28;20391;-70
2023/10/28 06:13:46;;;;;;;2.60;0.73;;;;;;;;;;5031275;28;20632;-70
2023/10/28 06:16:15;;;;;;;1.25;0.70;;;;;;;;;;5031795;28;20049;-70
2023/10/28 06:18:42;;;;;;;0.50;0.50;;;;;;;;;;5031250;28;20124;-71
2023/10/28 06:21:11;;;;;;;2.50;0.70;;;;;;;;;;5031386;28;20539;-70
2023/10/28 06:23:40;;;;;;;2.70;0.85;;;;;;;;;;5030562;28;20045;-70
2023/10/28 06:26:10;;;;;;;1.42;0.50;;;;;;;;;;5031249;28;20541;-71
2023/10/28 06:28:37;;;;;;;2.78;0.80;;;;;;;;;;5030838;28;20391;-71
2023/10/28 06:31:04;;;;;;;2.60;0.80;;;;;;;;;;5031293;28;20071;-70
2023/10/28 06:33:32;;;;;;;3.97;0.77;;;;;;;;;;5031307;28;20073;-71
2023/10/28 06:35:59;;;;;;;0.85;0.50;;;;;;;;;;5031225;28;20049;-70
2023/10/28 06:38:28;;;;;;;1.52;0.73;;;;;;;;;;5030140;28;20390;-71
2023/10/28 06:40:54;;;;;;;2.90;0.65;;;;;;;;;;5031056;28;20048;-71
2023/10/28 06:43:23;;;;;;;3.22;0.80;;;;;;;;;;5030758;28;20137;-70
2023/10/28 06:45:50;;;;;;;1.27;0.60;;;;;;;;;;5031044;28;20046;-70
2023/10/28 06:48:17;;;;;;;1.55;0.68;;;;;;;;;;5030454;28;20469;-70
2023/10/28 06:50:45;;;;;;;1.50;0.52;;;;;;;;;;5030834;28;20041;-70
2023/10/28 06:53:11;;;;;;;1.42;0.80;;;;;;;;;;5029046;28;20552;-70
2023/10/28 06:55:38;;;;;;;3.60;0.85;;;;;;;;;;5030238;28;20053;-70
2023/10/28 06:58:05;;;;;;;1.52;0.63;;;;;;;;;;5030333;28;20411;-72
2023/10/28 07:00:31;;;;;;;2.78;0.70;;;;;;;;;;5030691;28;20049;-70
2023/10/28 07:02:59;;;;;;;3.28;0.77;;;;;;;;;;5030587;28;20049;-72
2023/10/28 07:05:25;;;;;;;1.35;0.50;;;;;;;;;;5030535;28;20042;-71
2023/10/28 07:07:54;;;;;;;1.45;0.68;;;;;;;;;;5013120;28;20049;-70
2023/10/28 07:10:22;;;;;;;1.05;0.60;;;;;;;;;;5030134;28;20103;-70
2023/10/28 07:12:49;;;;;;;3.05;0.75;;;;;;;;;;5030333;28;20107;-71
2023/10/28 07:15:19;;;;;;;3.35;0.80;;;;;;;;;;5030160;28;20144;-70
2023/10/28 07:17:49;;;;;;;4.22;0.70;;;;;;;;;;5029976;28;20128;-71
2023/10/28 07:20:19;;;;;;;2.00;0.50;;;;;;;;;;5030233;28;20053;-70
2023/10/28 07:22:46;;;;;;;1.27;0.60;;;;;;;;;;5030246;28;20506;-71
2023/10/28 07:25:19;;;;;;;3.10;0.70;;;;;;;;;;5029895;28;20052;-70
2023/10/28 07:27:45;;;;;;;2.22;0.55;;;;;;;;;;5030300;28;20051;-69
2023/10/28 07:30:12;;;;;;;2.25;0.52;;;;;;;;;;5012449;28;20060;-70
2023/10/28 07:32:40;;;;;;;3.80;0.70;;;;;;;;;;5030067;28;20050;-70
2023/10/28 07:35:07;;;;;;;1.52;0.65;;;;;;;;;;5029497;28;20480;-71
2023/10/28 07:37:34;;;;;;;1.80;0.55;;;;;;;;;;5037789;28;20106;-70
2023/10/28 07:40:03;;;;;;;2.17;0.65;;;;;;;;;;5031459;28;20065;-70
2023/10/28 07:42:31;;;;;;;3.58;0.75;;;;;;;;;;5030277;28;20052;-69
2023/10/28 07:44:57;;;;;;;1.73;0.50;;;;;;;;;;5029668;28;20107;-68
2023/10/28 07:47:24;;;;;;;5.22;0.85;;;;;;;;;;5029806;28;20057;-69
2023/10/28 07:49:52;;;;;;;4.38;0.80;;;;;;;;;;5029446;28;20608;-70
2023/10/28 07:52:19;;;;;;;4.75;0.73;;;;;;;;;;5029391;28;20524;-70
2023/10/28 07:54:46;;;;;;;1.85;0.80;;;;;;;;;;5028985;28;20056;-69
2023/10/28 07:57:13;;;;;;;1.42;0.50;;;;;;;;;;5029704;28;20053;-70
2023/10/28 07:59:40;;;;;;;2.60;1.08;;;;;;;;;;5029343;28;20049;-71
2023/10/28 08:02:06;;;;;;;3.22;0.80;;;;;;;;;;5029384;28;20398;-69
2023/10/28 08:04:33;;;;;;;1.70;0.63;;;;;;;;;;5029225;28;20723;-70
2023/10/28 08:07:00;;;;;;;2.08;0.60;;;;;;;;;;5028264;28;20056;-74
2023/10/28 08:09:28;;;;;;;1.80;0.68;;;;;;;;;;5026502;28;20498;-69
2023/10/28 08:11:54;;;;;;;2.92;0.70;;;;;;;;;;5028482;28;20084;-69
2023/10/28 08:14:21;;;;;;;1.83;0.60;;;;;;;;;;5029051;28;20468;-71
2023/10/28 08:16:48;;;;;;;3.38;0.73;;;;;;;;;;5029550;28;20045;-69
2023/10/28 08:19:17;;;;;;;3.17;0.80;;;;;;;;;;5011622;28;20060;-70
2023/10/28 08:21:44;;;;;;;3.00;1.08;;;;;;;;;;5029071;28;20053;-70
2023/10/28 08:24:15;;;;;;;1.58;0.60;;;;;;;;;;5030492;28;20111;-70
2023/10/28 08:26:42;;;;;;;3.45;0.75;;;;;;;;;;5033886;28;20065;-70
2023/10/28 08:29:11;;;;;;;1.98;0.60;;;;;;;;;;5040589;28;20108;-74
2023/10/28 08:31:38;;;;;;;1.95;0.68;;;;;;;;;;5040369;28;20383;-73
2023/10/28 08:34:05;;;;;;;1.60;0.70;;;;;;;;;;5039247;28;20048;-70
2023/10/28 08:36:34;;;;;;;2.22;0.90;;;;;;;;;;5040277;28;20053;-70
2023/10/28 08:39:01;;;;;;;1.88;0.70;;;;;;;;;;5039950;28;20045;-69
2023/10/28 08:41:28;;;;;;;1.85;0.70;;;;;;;;;;5040176;28;20367;-70
2023/10/28 08:43:56;;;;;;;4.30;0.85;;;;;;;;;;5040284;28;20054;-69
2023/10/28 08:46:24;;;;;;;5.68;1.00;;;;;;;;;;5022992;28;20056;-70
2023/10/28 08:48:55;;;;;;;4.25;0.82;;;;;;;;;;5040168;28;20356;-69
2023/10/28 08:51:22;;;;;;;1.85;0.57;;;;;;;;;;5038272;28;20219;-70
2023/10/28 08:53:52;;;;;;;3.70;1.00;;;;;;;;;;5039852;28;20116;-70
2023/10/28 08:56:23;;;;;;;2.30;0.57;;;;;;;;;;5039678;28;20404;-70
2023/10/28 08:58:52;;;;;;;1.70;0.70;;;;;;;;;;5040361;28;20117;-73
2023/10/28 09:01:27;;;;;;;4.20;0.70;;;;;;;;;;5039782;28;20045;-72
2023/10/28 09:04:00;;;;;;;2.55;0.80;;;;;;;;;;5040107;28;20144;-70
2023/10/28 09:06:28;;;;;;;2.00;0.60;;;;;;;;;;5040137;28;20087;-72
2023/10/28 09:08:55;;;;;;;2.85;0.70;;;;;;;;;;5039457;28;20045;-72
2023/10/28 09:11:22;;;;;;;3.00;0.60;;;;;;;;;;5038934;28;20049;-70
2023/10/28 09:13:49;;;;;;;1.75;0.60;;;;;;;;;;5039847;28;20052;-70
2023/10/28 09:16:15;;;;;;;1.95;0.60;;;;;;;;;;5039944;28;20041;-70
2023/10/28 09:18:43;;;;;;;2.28;0.77;;;;;;;;;;5056544;28;20045;-70
2023/10/28 09:21:11;;;;;;;2.45;0.70;;;;;;;;;;5054413;28;20273;-71
2023/10/28 09:23:43;;;;;;;2.72;0.90;;;;;;;;;;5043244;28;20045;-70
2023/10/28 09:26:10;;;;;;;2.63;0.60;;;;;;;;;;5043713;28;20037;-71
2023/10/28 09:28:47;;;;;;;2.25;0.70;;;;;;;;;;5043571;28;20046;-70
2023/10/28 09:31:23;;;;;;;2.13;0.70;;;;;;;;;;5043519;28;20494;-71
2023/10/28 09:33:50;;;;;;;3.60;0.90;;;;;;;;;;5043609;28;20041;-69
2023/10/28 09:36:17;;;;;;;3.08;0.70;;;;;;;;;;5043206;28;20310;-71
2023/10/28 09:38:48;;;;;;;3.35;0.80;;;;;;;;;;5042842;28;20041;-70
2023/10/28 09:41:14;;;;;;;;;;;;;;;;;;5040812;28;20252;-70
2023/10/28 09:43:42;;;;;;;3.03;0.65;;;;;;;;;;5042117;28;19917;-70
2023/10/28 09:46:09;;;;;;;4.20;0.70;;;;;;;;;;5043064;28;20056;-70
2023/10/28 09:48:39;;;;;;;1.95;0.65;;;;;;;;;;5043013;28;20042;-70
2023/10/28 09:51:06;;;;;;;6.55;1.10;;;;;;;;;;5042929;28;20068;-70
2023/10/28 09:53:36;;;;;;;2.65;0.75;;;;;;;;;;5043260;28;20112;-69
2023/10/28 09:56:04;;;;;;;1.42;0.90;;;;;;;;;;5041114;28;20053;-72
2023/10/28 09:58:41;;;;;;;1.70;0.60;;;;;;;;;;5024818;28;20076;-73
2023/10/28 10:01:27;;;;;;;3.53;0.70;;;;;;;;;;5042889;28;20087;-71
2023/10/28 10:04:21;;;;;;;2.80;0.50;;;;;;;;;;5043356;28;20117;-70
2023/10/28 10:06:48;;;;;;;3.90;0.60;;;;;;;;;;5043175;28;20055;-70
2023/10/28 10:09:18;;;;;;;1.27;0.52;;;;;;;;;;5041732;28;20237;-70
2023/10/28 10:11:45;;;;;;;2.22;0.77;;;;;;;;;;5043118;28;20050;-71
2023/10/28 10:14:12;;;;;;;2.08;0.70;;;;;;;;;;5043073;28;20273;-72
2023/10/28 10:16:54;;;;;;;1.38;0.52;;;;;;;;;;5025390;28;20248;-69
2023/10/28 10:19:30;;;;;;;2.17;0.70;;;;;;;;;;5043103;28;20068;-69
2023/10/28 10:21:57;;;;;;;2.65;0.70;;;;;;;;;;5042812;28;20205;-69
2023/10/28 10:24:24;;;;;;;2.35;0.90;;;;;;;;;;5042653;28;20104;-69
2023/10/28 10:26:56;;;;;;;1.85;0.82;;;;;;;;;;5043060;28;20056;-70
2023/10/28 10:29:26;;;;;;;1.92;0.70;;;;;;;;;;5042387;28;20108;-69
2023/10/28 10:31:55;;;;;;;2.10;0.73;;;;;;;;;;5042501;28;20124;-71
2023/10/28 10:34:36;;;;;;;3.28;0.60;;;;;;;;;;5041526;28;20146;-69
2023/10/28 10:37:04;;;;;;;1.80;0.50;;;;;;;;;;5026833;28;20276;-71
2023/10/28 10:39:42;;;;;;;3.22;0.63;;;;;;;;;;5042269;28;20233;-72
2023/10/28 10:42:10;;;;;;;3.20;0.60;;;;;;;;;;5042404;28;20092;-71
2023/10/28 10:44:38;;;;;;;2.15;0.70;;;;;;;;;;5041156;28;20049;-74
2023/10/28 10:47:11;;;;;;;3.70;0.70;;;;;;;;;;5040786;28;20044;-71
2023/10/28 10:49:39;;;;;;;3.60;0.77;;;;;;;;;;5038643;28;20331;-70
2023/10/28 10:52:08;;;;;;;2.25;0.70;;;;;;;;;;5041840;28;20041;-71
2023/10/28 10:54:38;;;;;;;1.77;0.70;;;;;;;;;;5039068;28;20046;-69
2023/10/28 10:57:07;;;;;;;2.67;0.70;;;;;;;;;;5041700;28;20349;-74
2023/10/28 10:59:36;;;;;;;1.63;0.65;;;;;;;;;;5039194;28;20372;-69
2023/10/28 11:02:03;;;;;;;2.00;0.60;;;;;;;;;;5040553;28;20389;-69
2023/10/28 11:04:34;;;;;;;2.45;0.70;;;;;;;;;;5041860;28;20041;-70
2023/10/28 11:07:05;;;;;;;2.05;0.60;;;;;;;;;;5041558;28;20048;-70
2023/10/28 11:09:34;;;;;;;3.70;0.88;;;;;;;;;;5038788;28;20130;-70
2023/10/28 11:12:00;;;;;;;2.33;0.70;;;;;;;;;;5041571;28;20062;-71
2023/10/28 11:14:30;;;;;;;4.60;0.90;;;;;;;;;;5041741;28;20073;-71
2023/10/28 11:16:59;;;;;;;5.07;1.65;;;;;;;;;;5041409;28;20249;-70
2023/10/28 11:19:26;;;;;;;3.08;0.82;;;;;;;;;;5040280;28;20037;-74
2023/10/28 11:21:54;;;;;;;4.25;0.93;;;;;;;;;;5037581;28;20060;-71
2023/10/28 11:24:22;;;;;;;4.00;0.82;;;;;;;;;;5041245;28;20048;-70
2023/10/28 11:26:49;;;;;;;5.78;1.58;;;;;;;;;;5040755;28;20373;-70
2023/10/28 11:29:16;;;;;;;3.38;0.98;;;;;;;;;;5041150;28;20084;-69
2023/10/28 11:31:45;;;;;;;6.85;1.13;;;;;;;;;;5041135;28;20072;-69
2023/10/28 11:34:13;;;;;;;4.30;1.00;;;;;;;;;;5040962;28;20092;-70
2023/10/28 11:36:40;;;;;;;1.70;0.77;;;;;;;;;;5023775;28;20061;-69
2023/10/28 11:39:09;;;;;;;3.53;0.80;;;;;;;;;;5041148;28;20049;-70
2023/10/28 11:41:36;;;;;;;4.28;0.90;;;;;;;;;;5040629;28;20052;-70
2023/10/28 11:44:03;;;;;;;3.33;0.80;;;;;;;;;;5041467;28;20345;-69
2023/10/28 11:46:31;;;;;;;2.28;0.70;;;;;;;;;;5041077;28;20045;-69
2023/10/28 11:48:57;;;;;;;2.35;0.85;;;;;;;;;;5041362;28;20045;-70
2023/10/28 11:51:25;;;;;;;2.70;0.80;;;;;;;;;;5041112;28;20207;-70
2023/10/28 11:53:53;;;;;;;2.53;0.82;;;;;;;;;;5041276;28;20045;-69
2023/10/28 11:56:20;;;;;;;4.30;1.10;;;;;;;;;;5041207;28;20117;-69
2023/10/28 11:58:50;;;;;;;6.25;1.60;;;;;;;;;;5041455;28;20091;-70
2023/10/28 12:01:18;;;;;;;5.45;1.38;;;;;;;;;;5040815;28;20057;-70
2023/10/28 12:03:46;;;;;;;2.22;1.10;;;;;;;;;;5041060;28;20041;-70
2023/10/28 12:06:14;;;;;;;3.60;1.00;;;;;;;;;;5040912;28;20341;-70
2023/10/28 12:08:57;;;;;;;4.18;1.10;;;;;;;;;;5040477;28;20049;-70
2023/10/28 12:11:25;;;;;;;3.92;0.80;;;;;;;;;;5023396;28;20057;-70
2023/10/28 12:13:51;;;;;;;3.70;1.00;;;;;;;;;;5040883;28;20341;-70
2023/10/28 12:16:18;;;;;;;3.35;1.10;;;;;;;;;;5040987;28;20083;-70
2023/10/28 12:18:45;;;;;;;2.83;0.90;;;;;;;;;;5040934;28;20060;-70
2023/10/28 12:21:13;;;;;;;3.30;0.90;;;;;;;;;;5040571;28;20140;-70
2023/10/28 12:23:39;;;;;;;2.90;0.90;;;;;;;;;;5040201;28;20333;-71
2023/10/28 12:26:06;;;;;;;2.45;0.70;;;;;;;;;;5040851;28;20049;-70
2023/10/28 12:28:34;;;;;;;2.25;0.93;;;;;;;;;;5039377;28;20072;-70
2023/10/28 12:31:03;;;;;;;2.83;1.10;;;;;;;;;;5040415;28;20049;-70
2023/10/28 12:33:30;;;;;;;4.70;0.80;;;;;;;;;;5040292;28;20345;-70
2023/10/28 12:35:57;;;;;;;3.22;0.70;;;;;;;;;;5040327;28;20063;-70
2023/10/28 12:38:26;;;;;;;2.90;0.80;;;;;;;;;;5039979;28;20064;-70
2023/10/28 12:40:53;;;;;;;3.38;0.80;;;;;;;;;;5040526;28;20107;-70
2023/10/28 12:43:19;;;;;;;3.38;1.00;;;;;;;;;;5039463;28;20037;-70
2023/10/28 12:45:46;;;;;;;3.30;1.00;;;;;;;;;;5039491;28;20056;-71
2023/10/28 12:48:13;;;;;;;3.53;0.90;;;;;;;;;;5039107;28;20058;-71
2023/10/28 12:50:39;;;;;;;2.75;0.90;;;;;;;;;;5040180;28;20084;-70
2023/10/28 12:53:10;;;;;;;3.60;1.00;;;;;;;;;;5039632;28;20053;-72
2023/10/28 12:55:37;;;;;;;3.58;0.80;;;;;;;;;;5040077;28;20041;-71
2023/10/28 12:58:04;;;;;;;2.95;1.00;;;;;;;;;;5039140;28;20112;-72
2023/10/28 13:00:31;;;;;;;1.90;0.60;;;;;;;;;;5039901;28;20360;-72
2023/10/28 13:02:57;;;;;;;4.53;0.80;;;;;;;;;;5022653;28;20045;-72
2023/10/28 13:05:24;;;;;;;4.40;0.68;;;;;;;;;;5040396;28;20056;-72
2023/10/28 13:07:51;;;;;;;2.92;1.00;;;;;;;;;;5039913;28;20108;-71
2023/10/28 13:10:19;;;;;;;2.63;0.75;;;;;;;;;;5039972;28;20045;-72
2023/10/28 13:12:46;;;;;;;4.28;0.88;;;;;;;;;;5022141;28;20049;-72
2023/10/28 13:15:13;;;;;;;3.17;0.70;;;;;;;;;;5039926;28;20061;-72
2023/10/28 13:17:40;;;;;;;2.63;0.70;;;;;;;;;;5039722;28;20053;-70
2023/10/28 13:20:10;;;;;;;1.30;0.57;;;;;;;;;;5039889;28;20045;-72
2023/10/28 13:22:40;;;;;;;1.65;0.57;;;;;;;;;;5040205;28;20045;-72
2023/10/28 13:25:08;;;;;;;1.42;0.50;;;;;;;;;;5039792;28;20044;-71
2023/10/28 13:27:37;;;;;;;2.05;0.60;;;;;;;;;;5040005;28;20072;-71
2023/10/28 13:30:12;;;;;;;2.10;0.63;;;;;;;;;;5022328;28;20045;-72
2023/10/28 13:32:43;;;;;;;2.85;0.73;;;;;;;;;;5039685;28;20325;-73
2023/10/28 13:35:21;;;;;;;1.73;0.55;;;;;;;;;;5038527;28;20109;-71
2023/10/28 13:37:49;;;;;;;2.28;0.60;;;;;;;;;;5039757;28;20061;-73
2023/10/28 13:40:17;;;;;;;3.00;0.60;;;;;;;;;;5039311;28;20080;-72
2023/10/28 13:42:44;;;;;;;2.97;0.90;;;;;;;;;;5039615;28;20245;-72
2023/10/28 13:45:10;;;;;;;2.25;0.57;;;;;;;;;;5039482;28;20269;-72
2023/10/28 13:47:41;;;;;;;3.00;0.60;;;;;;;;;;5039567;28;20292;-72
2023/10/28 13:50:09;;;;;;;2.50;0.90;;;;;;;;;;5038551;28;20068;-73
2023/10/28 13:52:43;;;;;;;3.08;0.60;;;;;;;;;;5022568;28;20080;-72
2023/10/28 13:55:13;;;;;;;1.48;0.40;;;;;;;;;;5039278;28;20114;-72
2023/10/28 13:57:43;;;;;;;3.47;0.60;;;;;;;;;;5039387;28;20099;-73
2023/10/28 14:00:13;;;;;;;3.22;0.63;;;;;;;;;;5039874;28;20098;-75
2023/10/28 14:02:43;;;;;;;1.83;0.68;;;;;;;;;;5039461;28;20108;-70
2023/10/28 14:05:13;;;;;;;3.15;0.70;;;;;;;;;;5042230;28;20116;-72
2023/10/28 14:07:43;;;;;;;;;;;;;;;;;;5043629;28;20298;-70
2023/10/28 14:10:13;;;;;;;3.67;0.90;;;;;;;;;;5042637;28;19931;-69
2023/10/28 14:12:43;;;;;;;2.55;1.00;;;;;;;;;;5043091;28;20117;-70
2023/10/28 14:15:10;;;;;;;2.80;0.70;;;;;;;;;;5042927;28;20049;-70
2023/10/28 14:17:38;;;;;;;3.28;0.70;;;;;;;;;;5025704;28;20049;-69
2023/10/28 14:20:09;;;;;;;1.20;0.60;;;;;;;;;;5043121;28;20108;-70
2023/10/28 14:22:37;;;;;;;3.10;1.00;;;;;;;;;;5042621;28;20329;-71
2023/10/28 14:25:08;;;;;;;3.88;0.82;;;;;;;;;;5042364;28;20046;-71
2023/10/28 14:27:35;;;;;;;3.03;0.85;;;;;;;;;;5043112;28;20084;-72
2023/10/28 14:30:04;;;;;;;3.50;0.60;;;;;;;;;;5042936;28;20116;-73
2023/10/28 14:32:35;;;;;;;2.78;0.70;;;;;;;;;;5042994;28;20203;-72
2023/10/28 14:35:03;;;;;;;4.10;0.73;;;;;;;;;;5042717;28;20091;-71
2023/10/28 14:37:31;;;;;;;1.92;0.60;;;;;;;;;;5042844;28;20057;-72
2023/10/28 14:39:57;;;;;;;2.95;0.60;;;;;;;;;;5042385;28;20117;-71
2023/10/28 14:42:24;;;;;;;2.20;0.80;;;;;;;;;;5045509;28;20299;-71
2023/10/28 14:44:51;;;;;;;3.95;0.90;;;;;;;;;;5062584;28;20060;-71
2023/10/28 14:47:18;;;;;;;1.85;0.57;;;;;;;;;;5048562;28;20124;-71
2023/10/28 14:49:45;;;;;;;1.98;0.80;;;;;;;;;;5042401;28;20052;-71